Time;durP1;ratioP1;P1;durP2;ratioP2;P2;SDS_P1;SDS_P2;PMS_P1;PMS_P2;Temp;Humidity;BMP_temperature;BMP_pressure;BME280_temperature;BME280_humidity;BME280_pressure;Samples;Min_cycle;Max_cycle;Signal;HPM_P1;HPM_P2
2023/07/02 00:01:03;;;;;;;31.52;9.18;;;15.10;99.90;;;;;;5089204;28;20168;-65
2023/07/02 00:03:29;;;;;;;24.80;8.95;;;15.00;99.90;;;;;;5090209;28;20251;-65
2023/07/02 00:05:56;;;;;;;28.15;9.18;;;15.10;99.90;;;;;;5090101;28;20294;-65
2023/07/02 00:08:22;;;;;;;27.58;8.95;;;15.10;99.90;;;;;;5090556;28;20539;-65
2023/07/02 00:10:48;;;;;;;25.15;8.48;;;15.10;99.90;;;;;;5090279;28;20549;-65
2023/07/02 00:13:14;;;;;;;25.77;8.68;;;15.10;99.90;;;;;;5090430;28;20165;-64
2023/07/02 00:15:40;;;;;;;33.60;9.48;;;15.10;99.90;;;;;;5090590;28;20176;-65
2023/07/02 00:18:06;;;;;;;33.83;8.05;;;15.10;99.90;;;;;;5090452;28;20225;-64
2023/07/02 00:20:37;;;;;;;26.85;8.50;;;15.10;99.90;;;;;;5090272;28;20172;-64
2023/07/02 00:23:03;;;;;;;29.38;8.02;;;15.00;99.90;;;;;;5089936;28;20263;-64
2023/07/02 00:25:29;;;;;;;37.22;8.52;;;15.00;99.90;;;;;;5090213;28;20219;-64
2023/07/02 00:27:54;;;;;;;23.83;7.93;;;15.00;99.90;;;;;;5090476;28;20546;-64
2023/07/02 00:30:20;;;;;;;29.92;8.20;;;14.90;99.90;;;;;;5090317;28;20183;-64
2023/07/02 00:32:46;;;;;;;29.40;8.95;;;15.00;99.90;;;;;;5090369;28;20163;-65
2023/07/02 00:35:11;;;;;;;33.63;9.10;;;15.00;99.90;;;;;;5090108;28;20214;-65
2023/07/02 00:37:37;;;;;;;30.00;7.72;;;14.90;99.90;;;;;;5090314;28;20172;-64
2023/07/02 00:40:03;;;;;;;31.65;8.43;;;14.90;99.90;;;;;;5089998;28;20175;-65
2023/07/02 00:42:29;;;;;;;35.53;8.57;;;14.90;99.90;;;;;;5091109;28;20176;-64
2023/07/02 00:44:57;;;;;;;31.50;8.25;;;14.80;99.90;;;;;;5093936;28;20191;-64
2023/07/02 00:47:23;;;;;;;25.85;8.02;;;14.90;99.90;;;;;;5094023;28;20243;-64
2023/07/02 00:49:50;;;;;;;30.38;7.25;;;15.20;99.90;;;;;;5093919;28;20284;-64
2023/07/02 00:52:18;;;;;;;27.17;7.95;;;14.80;99.90;;;;;;5093899;28;20174;-64
2023/07/02 00:54:44;;;;;;;24.45;7.25;;;14.90;99.90;;;;;;5093573;28;20705;-65
2023/07/02 00:57:09;;;;;;;35.30;7.47;;;14.70;99.90;;;;;;5093662;28;20271;-65
2023/07/02 00:59:35;;;;;;;23.15;7.75;;;14.90;99.90;;;;;;5094003;28;20572;-65
2023/07/02 01:02:01;;;;;;;27.02;7.30;;;14.90;99.90;;;;;;5093144;28;20204;-65
2023/07/02 01:04:27;;;;;;;31.98;8.50;;;14.60;99.90;;;;;;5092138;28;20202;-66
2023/07/02 01:06:59;;;;;;;24.83;8.13;;;14.60;99.90;;;;;;5092045;28;20168;-65
2023/07/02 01:09:26;;;;;;;31.92;8.38;;;14.60;99.90;;;;;;5093538;28;20233;-65
2023/07/02 01:12:02;;;;;;;31.73;8.35;;;14.50;99.90;;;;;;5093432;28;20194;-65
2023/07/02 01:14:41;;;;;;;24.70;7.95;;;14.40;99.90;;;;;;5093189;28;20301;-64
2023/07/02 01:17:07;;;;;;;29.13;7.85;;;14.60;99.90;;;;;;5091806;28;20518;-71
2023/07/02 01:19:51;;;;;;;33.53;8.15;;;14.30;99.90;;;;;;5093132;28;20370;-67
2023/07/02 01:22:24;;;;;;;24.83;8.07;;;14.40;99.90;;;;;;5093007;28;20695;-66
2023/07/02 01:24:51;;;;;;;28.80;8.35;;;14.10;99.90;;;;;;5093129;28;20722;-68
2023/07/02 01:27:17;;;;;;;25.13;6.97;;;14.20;99.90;;;;;;5093237;28;20241;-67
2023/07/02 01:29:46;;;;;;;26.92;7.55;;;14.30;99.90;;;;;;5093058;28;20172;-67
2023/07/02 01:32:12;;;;;;;35.83;7.55;;;;;;;;;;5093295;28;20188;-66
2023/07/02 01:34:38;;;;;;;27.27;6.90;;;;;;;;;;5092779;28;20230;-67
2023/07/02 01:37:05;;;;;;;29.08;7.22;;;14.10;99.90;;;;;;5092996;28;20183;-66
2023/07/02 01:39:30;;;;;;;26.00;6.70;;;13.90;99.90;;;;;;5092809;28;20193;-67
2023/07/02 01:42:08;;;;;;;21.05;7.20;;;14.10;99.90;;;;;;5091258;28;20184;-66
2023/07/02 01:44:34;;;;;;;27.38;7.32;;;14.10;99.90;;;;;;5091984;28;20175;-65
2023/07/02 01:46:59;;;;;;;27.98;7.15;;;14.00;99.90;;;;;;5092429;28;20673;-66
2023/07/02 01:49:25;;;;;;;26.60;7.03;;;14.00;99.90;;;;;;5091510;28;20179;-65
2023/07/02 01:51:52;;;;;;;33.42;6.97;;;13.90;99.90;;;;;;5092714;28;20171;-66
2023/07/02 01:54:18;;;;;;;28.63;7.30;;;14.00;99.90;;;;;;5092594;28;20164;-65
2023/07/02 01:56:44;;;;;;;28.80;6.88;;;13.90;99.90;;;;;;5092350;28;20171;-65
2023/07/02 01:59:10;;;;;;;25.88;6.85;;;13.90;99.90;;;;;;5092521;28;20597;-67
2023/07/02 02:01:40;;;;;;;23.23;6.55;;;;;;;;;;5078380;28;20267;-67
2023/07/02 02:04:06;;;;;;;28.52;6.15;;;;;;;;;;5092322;28;20638;-66
2023/07/02 02:06:32;;;;;;;23.05;6.40;;;13.80;99.90;;;;;;5082731;28;20670;-65
2023/07/02 02:08:57;;;;;;;27.33;6.35;;;13.90;99.90;;;;;;5072052;28;20253;-66
2023/07/02 02:11:23;;;;;;;25.80;6.22;;;13.80;99.90;;;;;;5071990;28;20172;-66
2023/07/02 02:13:49;;;;;;;22.08;6.13;;;13.70;99.90;;;;;;5072026;28;20240;-65
2023/07/02 02:16:15;;;;;;;24.58;7.35;;;13.80;99.90;;;;;;5071937;28;20264;-66
2023/07/02 02:18:41;;;;;;;21.00;5.70;;;13.70;99.90;;;;;;5080883;28;20180;-66
2023/07/02 02:21:06;;;;;;;26.02;6.57;;;13.70;99.90;;;;;;5091646;28;20229;-66
2023/07/02 02:23:32;;;;;;;24.95;6.53;;;13.80;99.90;;;;;;5091822;28;20229;-65
2023/07/02 02:25:57;;;;;;;27.98;7.13;;;13.70;99.90;;;;;;5091896;28;20707;-66
2023/07/02 02:28:23;;;;;;;25.02;5.80;;;13.70;99.90;;;;;;5091654;28;20164;-66
2023/07/02 02:30:49;;;;;;;22.50;6.47;;;13.70;99.90;;;;;;5091857;28;20666;-66
2023/07/02 02:33:15;;;;;;;32.30;7.10;;;;;;;;;;5091803;28;20179;-67
2023/07/02 02:35:40;;;;;;;24.98;6.68;;;13.70;99.90;;;;;;5091791;28;20273;-66
2023/07/02 02:38:06;;;;;;;19.70;5.85;;;13.50;99.90;;;;;;5090682;28;20217;-68
2023/07/02 02:40:31;;;;;;;22.83;6.07;;;13.50;99.90;;;;;;5091828;28;20950;-66
2023/07/02 02:42:57;;;;;;;32.80;6.22;;;;;;;;;;5091631;28;20234;-67
2023/07/02 02:45:23;;;;;;;25.05;6.00;;;;;;;;;;5091659;28;20684;-66
2023/07/02 02:47:49;;;;;;;21.90;6.13;;;;;;;;;;5091705;28;20168;-66
2023/07/02 02:50:15;;;;;;;17.50;5.70;;;;;;;;;;5091725;28;20178;-66
2023/07/02 02:52:41;;;;;;;22.33;5.88;;;13.50;99.90;;;;;;5091414;28;20237;-67
2023/07/02 02:55:08;;;;;;;19.63;5.22;;;13.20;99.90;;;;;;5091428;28;20302;-67
2023/07/02 02:57:34;;;;;;;21.17;6.22;;;13.40;99.90;;;;;;5091433;28;20186;-67
2023/07/02 03:00:00;;;;;;;20.33;5.63;;;;;;;;;;5091639;28;20179;-66
2023/07/02 03:02:25;;;;;;;22.50;5.70;;;13.30;99.90;;;;;;5091420;28;20635;-67
2023/07/02 03:04:52;;;;;;;28.27;6.20;;;;;;;;;;5090181;28;20196;-67
2023/07/02 03:07:18;;;;;;;21.60;6.30;;;;;;;;;;5090545;28;20238;-67
2023/07/02 03:09:44;;;;;;;24.00;5.93;;;;;;;;;;5090524;28;20267;-67
2023/07/02 03:12:10;;;;;;;23.45;5.75;;;;;;;;;;5090371;28;20276;-67
2023/07/02 03:14:36;;;;;;;23.70;5.75;;;;;;;;;;5090444;28;20197;-66
2023/07/02 03:17:02;;;;;;;19.90;5.63;;;13.00;99.90;;;;;;5090564;28;20171;-65
2023/07/02 03:19:28;;;;;;;19.47;5.80;;;;;;;;;;5090080;28;20194;-66
2023/07/02 03:21:54;;;;;;;21.17;5.47;;;;;;;;;;5090334;28;20176;-66
2023/07/02 03:24:20;;;;;;;28.48;6.13;;;;;;;;;;5090996;28;20176;-66
2023/07/02 03:26:46;;;;;;;20.75;5.80;;;;;;;;;;5090577;28;20215;-66
2023/07/02 03:29:12;;;;;;;25.90;5.88;;;;;;;;;;5090558;28;20175;-66
2023/07/02 03:31:38;;;;;;;21.90;5.57;;;;;;;;;;5090705;28;20217;-66
2023/07/02 03:34:08;;;;;;;20.60;6.82;;;13.20;99.90;;;;;;5090864;28;20179;-65
2023/07/02 03:36:34;;;;;;;20.00;6.07;;;12.90;99.90;;;;;;5089361;28;20538;-66
2023/07/02 03:39:00;;;;;;;19.43;6.13;;;13.20;99.90;;;;;;5090723;28;20175;-65
2023/07/02 03:41:25;;;;;;;20.85;5.68;;;13.00;99.90;;;;;;5090207;28;20186;-65
2023/07/02 03:43:51;;;;;;;18.83;5.68;;;13.10;99.90;;;;;;5091090;28;20172;-66
2023/07/02 03:46:17;;;;;;;21.40;5.70;;;;;;;;;;5090789;28;20652;-65
2023/07/02 03:48:42;;;;;;;23.87;5.90;;;13.00;99.90;;;;;;5090179;28;20221;-66
2023/07/02 03:51:08;;;;;;;23.93;5.70;;;13.10;99.90;;;;;;5090523;28;20610;-66
2023/07/02 03:53:34;;;;;;;22.53;6.63;;;13.10;99.90;;;;;;5090486;28;20207;-66
2023/07/02 03:55:59;;;;;;;25.17;6.23;;;13.10;99.90;;;;;;5075991;28;20169;-66
2023/07/02 03:58:25;;;;;;;24.13;5.77;;;13.10;99.90;;;;;;5088810;28;20698;-66
2023/07/02 04:00:51;;;;;;;29.17;6.13;;;13.00;99.90;;;;;;5090281;28;20582;-66
2023/07/02 04:03:17;;;;;;;23.10;5.88;;;13.10;99.90;;;;;;5090475;28;20182;-66
2023/07/02 04:05:43;;;;;;;24.08;5.80;;;;;;;;;;5090220;28;20230;-65
2023/07/02 04:08:09;;;;;;;20.27;5.53;;;13.20;99.90;;;;;;5090407;28;20631;-68
2023/07/02 04:10:35;;;;;;;18.02;5.43;;;13.20;99.90;;;;;;5090626;28;20175;-67
2023/07/02 04:13:01;;;;;;;21.08;5.15;;;;;;;;;;5089860;28;20179;-66
2023/07/02 04:15:26;;;;;;;21.73;5.45;;;13.20;99.90;;;;;;5090327;28;20213;-66
2023/07/02 04:17:52;;;;;;;21.45;5.70;;;13.20;99.90;;;;;;5092105;28;20168;-67
2023/07/02 04:20:21;;;;;;;16.45;4.85;;;13.20;99.90;;;;;;5093996;28;20266;-66
2023/07/02 04:22:47;;;;;;;16.90;5.20;;;13.30;99.90;;;;;;5094234;28;20175;-65
2023/07/02 04:25:15;;;;;;;14.38;4.45;;;13.30;99.90;;;;;;5094095;28;20207;-65
2023/07/02 04:27:44;;;;;;;19.65;5.13;;;13.30;99.90;;;;;;5094392;28;20198;-67
2023/07/02 04:30:11;;;;;;;24.95;5.13;;;13.50;99.90;;;;;;5092180;28;20234;-66
2023/07/02 04:32:39;;;;;;;22.85;5.35;;;13.50;99.90;;;;;;5082792;28;20172;-66
2023/07/02 04:35:05;;;;;;;20.00;5.30;;;13.60;99.90;;;;;;5094038;28;20239;-68
2023/07/02 04:37:31;;;;;;;19.58;5.65;;;13.60;99.90;;;;;;5089844;28;20179;-67
2023/07/02 04:39:57;;;;;;;22.38;5.82;;;13.60;99.90;;;;;;5094215;28;20631;-67
2023/07/02 04:42:27;;;;;;;19.00;5.83;;;13.60;99.90;;;;;;5093573;28;20210;-66
2023/07/02 04:44:55;;;;;;;20.63;5.10;;;13.60;99.90;;;;;;5094085;28;20191;-65
2023/07/02 04:47:21;;;;;;;21.35;5.53;;;13.70;99.90;;;;;;5096000;28;20637;-65
2023/07/02 04:49:46;;;;;;;17.42;5.18;;;13.70;99.90;;;;;;5094117;28;20225;-67
2023/07/02 04:52:12;;;;;;;22.05;6.10;;;13.80;99.90;;;;;;5093857;28;20502;-67
2023/07/02 04:54:38;;;;;;;21.25;5.82;;;13.70;99.90;;;;;;5093901;28;20168;-66
2023/07/02 04:57:03;;;;;;;24.35;6.65;;;13.80;99.90;;;;;;5093613;28;20171;-66
2023/07/02 04:59:29;;;;;;;20.13;5.43;;;14.00;99.90;;;;;;5093664;28;20175;-66
2023/07/02 05:01:55;;;;;;;22.05;6.10;;;13.70;99.90;;;;;;5093642;28;20258;-66
2023/07/02 05:04:20;;;;;;;21.88;5.50;;;13.70;99.90;;;;;;5093625;28;20572;-66
2023/07/02 05:06:46;;;;;;;19.50;5.32;;;13.50;99.90;;;;;;5093752;28;20311;-65
2023/07/02 05:09:12;;;;;;;16.77;4.95;;;;;;;;;;5092974;28;20175;-66
2023/07/02 05:11:38;;;;;;;25.77;5.72;;;;;;;;;;5093186;28;20203;-65
2023/07/02 05:14:04;;;;;;;27.67;5.82;;;;;;;;;;5093113;28;20183;-66
2023/07/02 05:16:30;;;;;;;25.80;5.45;;;13.90;99.90;;;;;;5092263;28;20696;-66
2023/07/02 05:18:56;;;;;;;23.10;5.93;;;;;;;;;;5093326;28;20179;-65
2023/07/02 05:21:22;;;;;;;29.10;5.63;;;;;;;;;;5093150;28;20195;-65
2023/07/02 05:23:48;;;;;;;18.20;4.82;;;13.90;99.90;;;;;;5093397;28;20196;-66
2023/07/02 05:26:14;;;;;;;22.92;5.30;;;;;;;;;;5079199;28;20242;-66
2023/07/02 05:28:40;;;;;;;14.50;5.00;;;14.10;99.90;;;;;;5085704;28;20199;-66
2023/07/02 05:31:05;;;;;;;20.70;5.28;;;14.10;99.90;;;;;;5093039;28;20211;-66
2023/07/02 05:33:33;;;;;;;15.13;5.55;;;14.10;99.90;;;;;;5092794;28;20610;-66
2023/07/02 05:35:59;;;;;;;22.42;5.05;;;;;;;;;;5092454;28;20220;-66
2023/07/02 05:38:24;;;;;;;16.85;4.78;;;14.30;99.90;;;;;;5092519;28;20168;-71
2023/07/02 05:40:50;;;;;;;20.50;4.50;;;;;;;;;;5092911;28;20182;-64
2023/07/02 05:43:16;;;;;;;19.48;6.03;;;14.40;99.90;;;;;;5092543;28;20199;-65
2023/07/02 05:45:42;;;;;;;22.67;5.35;;;14.30;99.90;;;;;;5092644;28;20667;-65
2023/07/02 05:48:07;;;;;;;19.60;5.55;;;14.60;99.90;;;;;;5092617;28;20172;-65
2023/07/02 05:50:33;;;;;;;16.00;4.32;;;14.40;99.90;;;;;;5092732;28;20643;-66
2023/07/02 05:52:59;;;;;;;27.58;5.30;;;;;;;;;;5092957;28;20168;-65
2023/07/02 05:55:25;;;;;;;22.92;5.10;;;;;;;;;;5092640;28;20160;-65
2023/07/02 05:57:51;;;;;;;15.82;4.85;;;;;;;;;;5092435;28;20536;-67
2023/07/02 06:00:17;;;;;;;19.98;4.95;;;14.70;99.90;;;;;;5092556;28;20171;-66
2023/07/02 06:02:43;;;;;;;17.10;4.90;;;;;;;;;;5092539;28;20168;-66
2023/07/02 06:05:08;;;;;;;21.38;4.82;;;14.60;99.90;;;;;;5092559;28;20207;-67
2023/07/02 06:07:34;;;;;;;17.98;4.90;;;14.70;99.90;;;;;;5092478;28;20626;-65
2023/07/02 06:10:00;;;;;;;19.42;5.38;;;14.70;99.90;;;;;;5091051;28;20213;-67
2023/07/02 06:12:25;;;;;;;19.08;4.78;;;14.70;99.90;;;;;;5092088;28;20622;-66
2023/07/02 06:14:51;;;;;;;17.20;5.05;;;15.00;99.90;;;;;;5092117;28;20168;-66
2023/07/02 06:17:16;;;;;;;20.38;4.80;;;15.00;99.90;;;;;;5092141;28;20171;-66
2023/07/02 06:19:42;;;;;;;25.67;5.35;;;15.20;99.90;;;;;;5092232;28;20176;-64
2023/07/02 06:22:08;;;;;;;14.60;4.30;;;;;;;;;;5092134;28;20175;-68
2023/07/02 06:24:34;;;;;;;17.65;5.00;;;;;;;;;;5091836;28;20606;-77
2023/07/02 06:26:59;;;;;;;20.90;4.60;;;15.20;99.90;;;;;;5090543;28;20213;-77
2023/07/02 06:29:28;;;;;;;19.85;4.55;;;;;;;;;;5091325;28;20657;-76
2023/07/02 06:31:54;;;;;;;20.73;5.20;;;;;;;;;;5091128;28;20297;-76
2023/07/02 06:34:20;;;;;;;24.17;5.78;;;;;;;;;;5091207;28;20237;-72
2023/07/02 06:36:45;;;;;;;22.33;5.15;;;15.30;99.90;;;;;;5092014;28;20176;-80
2023/07/02 06:39:11;;;;;;;17.02;4.50;;;;;;;;;;5091826;28;20634;-79
2023/07/02 06:41:37;;;;;;;21.35;5.13;;;15.40;99.90;;;;;;5091760;28;20168;-78
2023/07/02 06:44:04;;;;;;;25.35;4.93;;;;;;;;;;5091820;28;20216;-78
2023/07/02 06:46:30;;;;;;;19.83;4.72;;;15.30;99.90;;;;;;5091090;28;20269;-74
2023/07/02 06:48:55;;;;;;;17.70;4.20;;;15.40;99.90;;;;;;5089129;28;20530;-71
2023/07/02 06:51:22;;;;;;;19.30;4.57;;;;;;;;;;5091580;28;20164;-72
2023/07/02 06:53:48;;;;;;;16.40;4.72;;;;;;;;;;5090792;28;20172;-72
2023/07/02 06:56:13;;;;;;;18.80;4.40;;;14.80;99.90;;;;;;5091147;28;20198;-70
2023/07/02 06:58:43;;;;;;;14.68;4.68;;;15.30;99.90;;;;;;5090354;28;20622;-71
2023/07/02 07:01:09;;;;;;;13.68;4.60;;;;;;;;;;5089922;28;20219;-73
2023/07/02 07:03:35;;;;;;;15.63;4.22;;;15.40;99.90;;;;;;5090455;28;20184;-72
2023/07/02 07:06:01;;;;;;;20.95;5.05;;;;;;;;;;5091186;28;20216;-73
2023/07/02 07:08:27;;;;;;;23.42;4.85;;;;;;;;;;5089393;28;20666;-73
2023/07/02 07:10:53;;;;;;;18.15;4.68;;;;;;;;;;5090787;28;20553;-71
2023/07/02 07:13:19;;;;;;;20.63;4.45;;;15.80;1.00;;;;;;5091128;28;20172;-72
2023/07/02 07:15:45;;;;;;;23.67;4.55;;;;;;;;;;5087457;28;20634;-72
2023/07/02 07:18:10;;;;;;;15.02;3.95;;;15.60;1.00;;;;;;5090453;28;20546;-71
2023/07/02 07:20:39;;;;;;;18.98;4.47;;;15.90;1.00;;;;;;5092639;28;20194;-73
2023/07/02 07:23:05;;;;;;;23.52;5.00;;;16.20;99.90;;;;;;5095633;28;20253;-64
2023/07/02 07:25:31;;;;;;;18.90;4.70;;;;;;;;;;5090986;28;20215;-65
2023/07/02 07:27:59;;;;;;;19.00;4.47;;;16.40;99.90;;;;;;5097628;28;20176;-82
2023/07/02 07:30:25;;;;;;;21.38;4.28;;;16.40;1.00;;;;;;5093877;28;20160;-79
2023/07/02 07:32:51;;;;;;;16.70;4.70;;;16.50;99.90;;;;;;5092394;28;20187;-79
2023/07/02 07:35:18;;;;;;;23.20;4.30;;;16.50;99.90;;;;;;5091431;28;20220;-82
2023/07/02 07:37:44;;;;;;;15.77;4.10;;;;;;;;;;5092331;28;20184;-83
2023/07/02 07:40:11;;;;;;;14.80;3.78;;;16.00;1.00;;;;;;5092476;28;20179;-84
2023/07/02 07:42:37;;;;;;;13.85;4.07;;;;;;;;;;5089633;28;20176;-83
2023/07/02 07:45:03;;;;;;;15.30;3.80;;;;;;;;;;5091372;28;20212;-82
2023/07/02 07:47:29;;;;;;;15.05;3.88;;;16.20;1.00;;;;;;5090131;28;20182;-70
2023/07/02 07:49:55;;;;;;;15.63;3.15;;;;;;;;;;5088425;28;20616;-69
2023/07/02 07:52:21;;;;;;;19.08;4.43;;;;;;;;;;5093115;28;20187;-76
2023/07/02 07:54:47;;;;;;;17.73;3.88;;;;;;;;;;5093024;28;20180;-74
2023/07/02 07:57:14;;;;;;;14.82;3.00;;;16.60;1.00;;;;;;5094008;28;20186;-76
2023/07/02 07:59:40;;;;;;;14.43;3.30;;;;;;;;;;5088223;28;20190;-79
2023/07/02 08:02:06;;;;;;;19.10;3.45;;;17.00;99.90;;;;;;5094601;28;20835;-75
2023/07/02 08:04:32;;;;;;;13.05;3.10;;;17.10;99.90;;;;;;5094892;28;20194;-79
2023/07/02 08:06:59;;;;;;;17.45;4.45;;;;;;;;;;5107568;28;20199;-79
2023/07/02 08:09:26;;;;;;;17.38;3.30;;;;;;;;;;5134147;22;20714;-83
2023/07/02 08:11:52;;;;;;;20.15;4.05;;;;;;;;;;5033651;28;20264;-78
2023/07/02 08:14:18;;;;;;;17.63;4.00;;;;;;;;;;5033657;28;20170;-80
2023/07/02 08:16:44;;;;;;;16.58;3.67;;;17.50;1.00;;;;;;5032552;28;20204;-75
2023/07/02 08:19:11;;;;;;;11.52;2.90;;;18.30;99.90;;;;;;5034163;28;20591;-72
2023/07/02 08:21:36;;;;;;;12.55;3.03;;;18.00;29.70;;;;;;5034412;28;20264;-69
2023/07/02 08:24:03;;;;;;;11.63;2.78;;;18.00;99.90;;;;;;5034483;28;20257;-71
2023/07/02 08:26:29;;;;;;;13.25;3.60;;;;;;;;;;5030674;28;20206;-71
2023/07/02 08:28:55;;;;;;;15.70;3.13;;;;;;;;;;5034174;28;20170;-70
2023/07/02 08:31:21;;;;;;;13.00;3.42;;;;;;;;;;5033937;28;20178;-69
2023/07/02 08:33:47;;;;;;;11.95;2.92;;;;;;;;;;5032644;28;20178;-69
2023/07/02 08:36:13;;;;;;;9.85;2.47;;;;;;;;;;5033511;28;20180;-68
2023/07/02 08:38:41;;;;;;;16.13;3.25;;;18.20;1.00;;;;;;5034023;28;20583;-66
2023/07/02 08:41:07;;;;;;;22.27;3.63;;;18.50;99.90;;;;;;5033595;28;20552;-67
2023/07/02 08:43:33;;;;;;;15.68;3.55;;;;;;;;;;5033882;28;20174;-67
2023/07/02 08:45:59;;;;;;;12.90;3.00;;;18.00;99.90;;;;;;5033490;28;20246;-69
2023/07/02 08:48:28;;;;;;;11.82;3.50;;;17.80;99.90;;;;;;5033991;28;20556;-69
2023/07/02 08:50:54;;;;;;;20.00;3.85;;;17.90;99.90;;;;;;5032816;28;20185;-65
2023/07/02 08:53:25;;;;;;;17.13;4.20;;;17.80;1.00;;;;;;5033532;28;20178;-64
2023/07/02 08:55:50;;;;;;;14.20;3.30;;;17.80;99.90;;;;;;5032282;28;20174;-65
2023/07/02 08:58:16;;;;;;;12.70;3.20;;;17.70;99.90;;;;;;5033553;28;20766;-66
2023/07/02 09:01:08;;;;;;;14.10;3.20;;;17.80;1.00;;;;;;5032275;28;20174;-65
2023/07/02 09:03:37;;;;;;;15.10;3.28;;;17.90;99.90;;;;;;5032197;28;20189;-64
2023/07/02 09:06:06;;;;;;;19.05;3.50;;;18.00;27.00;;;;;;5033152;28;20209;-65
2023/07/02 09:08:35;;;;;;;21.95;3.53;;;18.10;1.00;;;;;;5033140;28;20225;-64
2023/07/02 09:11:16;;;;;;;10.23;2.75;;;18.40;1.00;;;;;;5031402;28;20640;-66
2023/07/02 09:13:58;;;;;;;12.82;3.00;;;18.50;1.00;;;;;;5024815;28;20184;-67
2023/07/02 09:16:32;;;;;;;18.40;3.20;;;18.50;99.90;;;;;;5033100;28;20264;-67
2023/07/02 09:19:05;;;;;;;15.32;3.22;;;18.50;99.90;;;;;;5032663;28;20189;-67
2023/07/02 09:21:45;;;;;;;15.50;3.40;;;17.80;99.90;;;;;;5033109;28;20162;-68
2023/07/02 09:24:22;;;;;;;17.83;3.33;;;17.90;99.90;;;;;;5029656;28;20177;-67
2023/07/02 09:26:59;;;;;;;14.00;2.88;;;17.60;1.00;;;;;;5033113;28;20220;-67
2023/07/02 09:29:28;;;;;;;14.02;2.95;;;17.60;99.90;;;;;;5032968;28;20178;-67
2023/07/02 09:31:55;;;;;;;16.90;3.95;;;17.60;1.00;;;;;;5032169;28;20252;-66
2023/07/02 09:34:30;;;;;;;17.13;3.47;;;17.50;99.90;;;;;;5043866;28;20177;-67
2023/07/02 09:36:56;;;;;;;10.43;3.10;;;17.60;99.90;;;;;;5044750;28;20173;-66
2023/07/02 09:39:27;;;;;;;17.23;3.65;;;17.70;99.90;;;;;;5032900;28;20235;-66
2023/07/02 09:41:54;;;;;;;16.60;3.33;;;18.00;99.90;;;;;;5033194;28;20193;-66
2023/07/02 09:44:20;;;;;;;18.05;3.67;;;18.20;99.90;;;;;;5032347;28;20193;-67
2023/07/02 09:46:52;;;;;;;14.48;3.50;;;18.20;1.00;;;;;;5032112;28;20223;-67
2023/07/02 09:49:20;;;;;;;14.73;3.55;;;18.10;99.90;;;;;;5032467;28;20177;-65
2023/07/02 09:51:46;;;;;;;15.40;3.28;;;18.30;79.90;;;;;;5031217;28;20653;-66
2023/07/02 09:54:12;;;;;;;17.33;3.08;;;18.40;1.00;;;;;;5032083;28;20260;-65
2023/07/02 09:56:39;;;;;;;15.77;3.38;;;18.40;1.00;;;;;;5032291;28;20299;-67
2023/07/02 09:59:05;;;;;;;11.35;2.92;;;18.50;99.90;;;;;;5032249;28;20174;-67
2023/07/02 10:01:31;;;;;;;12.05;3.38;;;;;;;;;;5032246;28;20176;-66
2023/07/02 10:03:57;;;;;;;14.23;3.10;;;;;;;;;;5032437;28;20166;-66
2023/07/02 10:06:22;;;;;;;15.57;3.08;;;18.80;1.00;;;;;;5032000;28;20228;-63
2023/07/02 10:08:55;;;;;;;15.13;2.65;;;18.50;99.90;;;;;;5032243;28;20222;-63
2023/07/02 10:11:20;;;;;;;13.25;3.10;;;18.40;1.00;;;;;;5032308;28;20735;-68
2023/07/02 10:13:57;;;;;;;22.92;3.63;;;18.60;1.00;;;;;;5031824;28;20249;-67
2023/07/02 10:16:22;;;;;;;11.68;3.30;;;18.60;1.00;;;;;;5015976;28;20642;-68
2023/07/02 10:18:48;;;;;;;17.08;3.10;;;19.10;1.00;;;;;;5031551;28;20208;-67
2023/07/02 10:21:17;;;;;;;16.90;3.33;;;19.10;1.00;;;;;;5031459;28;20193;-67
2023/07/02 10:23:43;;;;;;;14.55;3.70;;;19.10;1.00;;;;;;5030870;28;20182;-67
2023/07/02 10:26:17;;;;;;;13.48;2.83;;;18.40;1.00;;;;;;5031685;28;20212;-67
2023/07/02 10:28:43;;;;;;;17.42;3.13;;;18.70;1.00;;;;;;5031474;28;20178;-67
2023/07/02 10:31:20;;;;;;;14.38;3.45;;;19.00;30.50;;;;;;5031833;28;20182;-66
2023/07/02 10:33:47;;;;;;;10.38;2.95;;;18.60;1.00;;;;;;5029558;28;20253;-67
2023/07/02 10:36:23;;;;;;;12.95;3.10;;;19.00;1.00;;;;;;5025716;28;20182;-67
2023/07/02 10:38:52;;;;;;;15.65;3.30;;;19.00;1.00;;;;;;5031129;28;20181;-66
2023/07/02 10:41:29;;;;;;;12.95;2.78;;;19.00;1.00;;;;;;5031564;28;20178;-65
2023/07/02 10:44:05;;;;;;;9.85;2.40;;;19.30;1.00;;;;;;5030135;28;20625;-70
2023/07/02 10:46:31;;;;;;;11.68;2.85;;;19.20;1.00;;;;;;5011512;28;20704;-70
2023/07/02 10:48:57;;;;;;;18.73;3.08;;;19.40;1.00;;;;;;5023810;28;20202;-69
2023/07/02 10:51:28;;;;;;;11.73;3.00;;;19.40;99.90;;;;;;5031234;28;20185;-69
2023/07/02 10:54:00;;;;;;;12.57;2.97;;;19.80;1.00;;;;;;5030529;28;20186;-69
2023/07/02 10:56:27;;;;;;;14.50;2.95;;;19.90;62.80;;;;;;5031461;28;20251;-69
2023/07/02 10:58:54;;;;;;;12.65;2.45;;;19.80;1.00;;;;;;5031192;28;20187;-69
2023/07/02 11:01:27;;;;;;;12.00;3.13;;;19.70;1.00;;;;;;5031100;28;20169;-69
2023/07/02 11:04:01;;;;;;;14.35;2.85;;;19.30;99.90;;;;;;5029459;28;20260;-70
2023/07/02 11:06:32;;;;;;;11.82;2.50;;;16.40;99.90;;;;;;5031292;28;20236;-70
2023/07/02 11:08:59;;;;;;;13.95;3.10;;;18.70;1.00;;;;;;5030759;28;20226;-71
2023/07/02 11:11:25;;;;;;;11.88;2.97;;;18.40;1.00;;;;;;5031278;28;20289;-70
2023/07/02 11:13:52;;;;;;;13.65;2.83;;;18.30;34.80;;;;;;5030496;28;20210;-69
2023/07/02 11:16:26;;;;;;;15.40;2.78;;;18.20;1.00;;;;;;5031179;28;20653;-70
2023/07/02 11:19:12;;;;;;;10.95;2.83;;;18.30;1.00;;;;;;5030578;28;20190;-68
2023/07/02 11:21:38;;;;;;;20.23;2.78;;;18.70;1.00;;;;;;5030391;28;20190;-69
2023/07/02 11:24:06;;;;;;;14.57;2.95;;;18.90;99.90;;;;;;5030672;28;20482;-68
2023/07/02 11:26:39;;;;;;;12.63;2.40;;;19.60;99.90;;;;;;5030680;28;20221;-68
2023/07/02 11:29:10;;;;;;;17.33;3.10;;;20.10;1.00;;;;;;5028916;28;20646;-68
2023/07/02 11:31:36;;;;;;;13.50;3.08;;;20.20;1.00;;;;;;5030706;28;20173;-68
2023/07/02 11:34:12;;;;;;;14.68;2.80;;;20.20;99.90;;;;;;5030228;28;20640;-68
2023/07/02 11:36:39;;;;;;;12.02;2.70;;;20.00;1.00;;;;;;5030560;28;20259;-67
2023/07/02 11:39:05;;;;;;;13.48;2.50;;;19.90;1.00;;;;;;5030392;28;20173;-68
2023/07/02 11:41:37;;;;;;;15.20;3.13;;;20.40;1.00;;;;;;5030293;28;20181;-68
2023/07/02 11:44:03;;;;;;;11.60;2.65;;;21.50;1.00;;;;;;5026550;28;20511;-68
2023/07/02 11:46:29;;;;;;;11.20;2.92;;;22.20;1.00;;;;;;5029972;28;20209;-70
2023/07/02 11:48:54;;;;;;;9.90;2.97;;;21.70;99.90;;;;;;5028852;28;20185;-69
2023/07/02 11:51:21;;;;;;;16.77;2.75;;;21.70;99.90;;;;;;5010891;28;20634;-68
2023/07/02 11:53:46;;;;;;;16.92;2.95;;;21.40;99.90;;;;;;5010914;28;20171;-68
2023/07/02 11:56:13;;;;;;;8.30;2.25;;;;;;;;;;5010826;28;20233;-68
2023/07/02 11:58:39;;;;;;;10.48;2.58;;;20.60;99.90;;;;;;5009480;28;20166;-68
2023/07/02 12:01:05;;;;;;;12.25;2.55;;;20.30;99.90;;;;;;5009982;28;20281;-68
2023/07/02 12:03:30;;;;;;;13.60;2.53;;;20.50;99.90;;;;;;5010604;28;20183;-68
2023/07/02 12:05:56;;;;;;;12.25;2.65;;;21.30;99.90;;;;;;5010350;28;20209;-69
2023/07/02 12:08:22;;;;;;;12.57;2.67;;;21.60;99.90;;;;;;5010245;28;20183;-69
2023/07/02 12:10:48;;;;;;;12.75;2.70;;;21.00;99.90;;;;;;5021640;28;20178;-69
2023/07/02 12:13:13;;;;;;;12.65;2.45;;;21.90;99.90;;;;;;5030360;28;20177;-69
2023/07/02 12:15:39;;;;;;;10.68;2.20;;;20.80;99.90;;;;;;5030468;28;20629;-69
2023/07/02 12:18:05;;;;;;;12.45;2.72;;;20.80;99.90;;;;;;5030442;28;20541;-69
2023/07/02 12:20:31;;;;;;;11.35;2.92;;;20.30;99.90;;;;;;5030591;28;20166;-69
2023/07/02 12:22:57;;;;;;;11.20;2.05;;;20.40;99.90;;;;;;5030434;28;20166;-70
2023/07/02 12:25:23;;;;;;;12.05;2.95;;;20.50;99.90;;;;;;5029026;28;20300;-69
2023/07/02 12:27:48;;;;;;;6.60;2.03;;;20.90;99.90;;;;;;5028946;28;20206;-70
2023/07/02 12:30:18;;;;;;;15.05;2.97;;;;;;;;;;5030222;28;20562;-69
2023/07/02 12:32:44;;;;;;;9.02;2.33;;;;;;;;;;5030216;28;20166;-70
2023/07/02 12:35:10;;;;;;;9.07;2.20;;;20.90;99.90;;;;;;5030526;28;20262;-69
2023/07/02 12:37:43;;;;;;;14.40;1.67;;;20.70;99.90;;;;;;5028981;28;20175;-71
2023/07/02 12:40:09;;;;;;;9.07;2.22;;;20.90;99.90;;;;;;5033922;28;20178;-69
2023/07/02 12:42:35;;;;;;;13.40;2.70;;;20.50;99.90;;;;;;5033944;28;20166;-70
2023/07/02 12:45:01;;;;;;;13.88;2.92;;;20.70;99.90;;;;;;5033819;28;20645;-69
2023/07/02 12:47:26;;;;;;;11.25;2.80;;;21.90;99.90;;;;;;5033868;28;20173;-69
2023/07/02 12:49:52;;;;;;;17.90;3.53;;;22.00;99.90;;;;;;5033911;28;20174;-70
2023/07/02 12:52:17;;;;;;;12.40;3.00;;;22.10;99.90;;;;;;5033700;28;20182;-69
2023/07/02 12:54:43;;;;;;;15.80;2.80;;;22.40;99.90;;;;;;5033596;28;20629;-70
2023/07/02 12:57:09;;;;;;;13.20;2.90;;;22.60;99.90;;;;;;5033641;28;20177;-70
2023/07/02 12:59:35;;;;;;;8.57;2.38;;;22.20;91.10;;;;;;5033492;28;20755;-71
2023/07/02 13:02:01;;;;;;;14.80;3.55;;;21.50;83.50;;;;;;5033609;28;20209;-69